Time;durP1;ratioP1;P1;durP2;ratioP2;P2;SDS_P1;SDS_P2;PMS_P1;PMS_P2;Temp;Humidity;BMP_temperature;BMP_pressure;BME280_temperature;BME280_humidity;BME280_pressure;Samples;Min_cycle;Max_cycle;Signal;HPM_P1;HPM_P2
2020/12/05 00:02:18;;;;;;;2.75;1.48;;;;;;;11.56;66.23;99097.28;4994030;28;20042;-46
2020/12/05 00:04:44;;;;;;;2.30;1.50;;;;;;;11.55;65.84;99090.31;4994334;28;20030;-45
2020/12/05 00:07:10;;;;;;;2.92;0.85;;;;;;;11.56;66.31;99067.75;4994140;28;20413;-45
2020/12/05 00:09:36;;;;;;;4.50;1.23;;;;;;;11.56;67.31;99046.28;4994144;28;20062;-45
2020/12/05 00:12:09;;;;;;;3.67;1.83;;;;;;;11.57;67.22;99039.03;4994097;28;20463;-47
2020/12/05 00:14:35;;;;;;;2.58;1.27;;;;;;;11.59;66.47;99066.38;4994444;28;20133;-45
2020/12/05 00:17:00;;;;;;;6.07;1.85;;;;;;;11.60;66.94;99068.78;4996198;28;20116;-50
2020/12/05 00:19:26;;;;;;;2.08;1.70;;;;;;;11.55;68.25;99063.47;4993555;28;20049;-46
2020/12/05 00:21:55;;;;;;;4.38;1.77;;;;;;;11.47;68.26;99064.09;4997510;28;20760;-44
2020/12/05 00:24:21;;;;;;;1.88;1.23;;;;;;;11.34;67.99;99084.34;4999056;28;20531;-45
2020/12/05 00:26:51;;;;;;;4.00;1.45;;;;;;;11.23;68.26;99089.03;4997703;28;20113;-46
2020/12/05 00:29:17;;;;;;;2.67;1.25;;;;;;;11.31;68.61;99088.41;4999319;28;20052;-45
2020/12/05 00:31:42;;;;;;;2.83;0.63;;;;;;;11.40;68.44;99077.88;4997677;28;20096;-45
2020/12/05 00:34:08;;;;;;;2.15;1.35;;;;;;;11.54;67.85;99077.97;4998213;28;20475;-45
2020/12/05 00:36:34;;;;;;;2.17;0.93;;;;;;;11.61;67.67;99062.31;4998293;28;20042;-49
2020/12/05 00:38:59;;;;;;;1.00;0.52;;;;;;;11.51;68.35;99065.91;4997781;28;20066;-49
2020/12/05 00:41:24;;;;;;;4.47;2.38;;;;;;;11.40;68.54;99058.28;4995675;28;20038;-45
2020/12/05 00:43:50;;;;;;;6.22;2.65;;;;;;;11.34;68.93;99036.06;4993916;28;20042;-44
2020/12/05 00:46:15;;;;;;;4.85;1.15;;;;;;;11.40;70.14;99047.56;4992320;28;20026;-46
2020/12/05 00:48:41;;;;;;;2.65;1.02;;;;;;;11.37;69.70;99072.25;4993848;28;20443;-45
2020/12/05 00:51:06;;;;;;;1.83;0.80;;;;;;;11.42;69.40;99053.44;4993626;28;20113;-46
2020/12/05 00:53:32;;;;;;;8.15;1.52;;;;;;;11.50;69.46;99034.81;4993578;28;20070;-45
2020/12/05 00:55:57;;;;;;;1.77;0.82;;;;;;;11.43;69.82;99029.00;4993381;28;20031;-44
2020/12/05 00:58:23;;;;;;;1.30;0.77;;;;;;;11.43;69.99;99020.94;4993470;28;20125;-44
2020/12/05 01:00:48;;;;;;;1.58;0.47;;;;;;;11.41;70.01;99022.31;4992767;28;20034;-47
2020/12/05 01:03:14;;;;;;;1.08;0.45;;;;;;;11.46;69.92;99025.72;4996776;28;20503;-47
2020/12/05 01:05:39;;;;;;;0.88;0.65;;;;;;;11.39;69.61;99008.38;4993520;28;20061;-45
2020/12/05 01:08:07;;;;;;;1.85;0.70;;;;;;;11.35;69.61;99013.50;4996692;28;20066;-46
2020/12/05 01:10:33;;;;;;;1.17;0.80;;;;;;;11.27;70.08;99011.44;4994901;28;20053;-46
2020/12/05 01:13:01;;;;;;;6.88;0.90;;;;;;;11.33;71.08;99004.97;4996874;28;20136;-46
2020/12/05 01:15:27;;;;;;;4.15;0.47;;;;;;;11.40;71.01;98999.25;4995035;28;20034;-45
2020/12/05 01:17:53;;;;;;;2.03;0.50;;;;;;;11.30;71.58;99000.94;4988374;28;20403;-44
2020/12/05 01:20:19;;;;;;;0.73;0.43;;;;;;;11.23;72.01;99003.19;4998513;28;20441;-45
2020/12/05 01:22:44;;;;;;;1.90;0.95;;;;;;;11.32;71.67;98982.66;4996722;28;20045;-45
2020/12/05 01:25:10;;;;;;;1.38;0.40;;;;;;;11.28;72.01;98984.34;4997987;28;20107;-44
2020/12/05 01:27:35;;;;;;;5.43;0.93;;;;;;;11.22;72.06;98998.91;4996583;28;20042;-45
2020/12/05 01:30:01;;;;;;;0.63;0.20;;;;;;;11.17;71.38;99009.69;4996621;28;20030;-47
2020/12/05 01:32:26;;;;;;;12.13;6.68;;;;;;;11.31;70.66;99002.56;4997903;28;20058;-44
2020/12/05 01:34:52;;;;;;;10.18;5.78;;;;;;;11.34;70.70;98996.63;4996504;28;20357;-44
2020/12/05 01:37:17;;;;;;;7.97;1.88;;;;;;;11.33;70.98;98988.84;4998077;28;20051;-48
2020/12/05 01:39:43;;;;;;;4.05;1.90;;;;;;;11.25;71.62;98976.84;4996103;28;20471;-44
2020/12/05 01:42:08;;;;;;;11.27;2.28;;;;;;;11.21;71.70;98975.84;4997077;28;20034;-46
2020/12/05 01:44:34;;;;;;;3.75;1.73;;;;;;;11.19;71.87;98996.78;4995610;28;20457;-44
2020/12/05 01:47:01;;;;;;;3.17;1.92;;;;;;;11.05;71.82;98994.00;4996186;28;20030;-47
2020/12/05 01:49:27;;;;;;;2.53;1.05;;;;;;;11.14;71.19;99007.59;4991042;28;20065;-44
2020/12/05 01:51:52;;;;;;;5.78;1.17;;;;;;;11.17;71.38;98996.28;4992107;28;20070;-44
2020/12/05 01:54:18;;;;;;;1.38;0.70;;;;;;;11.19;71.61;98993.31;4997834;28;20030;-45
2020/12/05 01:56:56;;;;;;;0.45;0.20;;;;;;;11.34;70.71;99003.84;4995897;28;20073;-42
2020/12/05 01:59:21;;;;;;;1.38;0.68;;;;;;;11.26;71.10;99007.97;4992522;28;20042;-44
2020/12/05 02:01:48;;;;;;;1.02;0.60;;;;;;;11.19;71.34;99020.94;4991916;28;20089;-48
2020/12/05 02:04:13;;;;;;;0.77;0.57;;;;;;;11.24;71.50;99023.56;4994166;28;20427;-44
2020/12/05 02:06:50;;;;;;;1.02;0.50;;;;;;;11.25;71.53;99035.88;4988838;28;20097;-44
2020/12/05 02:09:25;;;;;;;1.85;1.27;;;;;;;11.26;71.83;99013.34;4992294;28;20059;-45
2020/12/05 02:12:00;;;;;;;1.30;0.85;;;;;;;11.16;72.76;98997.34;4993101;28;20740;-46
2020/12/05 02:14:28;;;;;;;0.40;0.30;;;;;;;11.08;72.31;99024.78;4995951;28;20796;-45
2020/12/05 02:16:58;;;;;;;0.47;0.30;;;;;;;11.19;72.00;99028.19;4995371;28;20085;-44
2020/12/05 02:19:35;;;;;;;1.98;1.00;;;;;;;11.21;71.73;99034.88;4994083;28;20097;-44
2020/12/05 02:22:01;;;;;;;8.93;3.88;;;;;;;11.34;71.23;99039.56;4992126;28;20038;-47
2020/12/05 02:24:27;;;;;;;12.40;3.40;;;;;;;11.37;71.60;99026.66;4995703;28;20039;-44
2020/12/05 02:26:53;;;;;;;6.68;4.50;;;;;;;11.29;71.99;99004.72;4995262;28;20034;-44
2020/12/05 02:29:19;;;;;;;12.20;4.40;;;;;;;11.25;71.84;99002.91;4997614;28;20034;-44
2020/12/05 02:31:45;;;;;;;3.70;2.33;;;;;;;11.18;71.79;99013.97;4995587;28;20034;-48
2020/12/05 02:34:10;;;;;;;4.35;1.60;;;;;;;11.15;72.20;99014.56;4988399;28;20126;-45
2020/12/05 02:36:38;;;;;;;6.43;3.72;;;;;;;11.26;71.59;99023.28;4992126;28;20529;-47
2020/12/05 02:39:09;;;;;;;6.60;3.00;;;;;;;11.32;70.74;99009.50;4992241;28;20038;-45
2020/12/05 02:41:39;;;;;;;1.63;0.98;;;;;;;11.37;70.15;99008.66;4992015;28;20030;-48
2020/12/05 02:44:05;;;;;;;1.70;1.00;;;;;;;11.33;71.15;99005.75;4990401;28;20490;-48
2020/12/05 02:46:31;;;;;;;4.55;2.60;;;;;;;11.38;71.35;99012.13;4978142;28;20030;-46
2020/12/05 02:48:57;;;;;;;4.25;1.45;;;;;;;11.50;70.60;99015.19;4991907;28;20093;-47
2020/12/05 02:51:22;;;;;;;2.75;0.75;;;;;;;11.61;70.46;99021.28;4994802;28;20088;-44
2020/12/05 02:53:49;;;;;;;1.40;0.70;;;;;;;11.51;70.66;99028.34;4995454;28;20049;-52
2020/12/05 02:56:19;;;;;;;4.82;2.10;;;;;;;11.46;70.93;99054.44;4996821;28;20034;-46
2020/12/05 02:58:45;;;;;;;5.20;1.90;;;;;;;11.39;70.80;99075.47;4995499;28;20085;-45
2020/12/05 03:01:11;;;;;;;1.45;0.77;;;;;;;11.48;70.55;99079.09;4993876;28;20399;-49
2020/12/05 03:03:37;;;;;;;0.10;0.10;;;;;;;11.67;69.68;99068.44;4991732;28;20416;-46
2020/12/05 03:06:03;;;;;;;0.63;0.40;;;;;;;11.58;70.02;99070.94;4991380;28;20036;-49
2020/12/05 03:08:28;;;;;;;1.42;0.30;;;;;;;11.53;70.69;99077.19;4991361;28;20054;-48
2020/12/05 03:10:54;;;;;;;0.95;0.30;;;;;;;11.53;70.89;99087.94;4991228;28;20085;-45
2020/12/05 03:13:19;;;;;;;3.42;1.10;;;;;;;11.56;71.38;99089.22;4991481;28;20042;-44
2020/12/05 03:15:45;;;;;;;2.58;0.52;;;;;;;11.54;71.64;99078.78;4991435;28;20052;-46
2020/12/05 03:18:10;;;;;;;2.67;1.10;;;;;;;11.40;71.81;99091.28;4991489;28;20460;-44
2020/12/05 03:20:36;;;;;;;6.45;0.80;;;;;;;11.26;72.42;99111.81;4991454;28;20052;-45
2020/12/05 03:23:01;;;;;;;1.48;0.73;;;;;;;11.33;71.84;99117.66;4991124;28;20042;-46
2020/12/05 03:25:27;;;;;;;1.40;0.50;;;;;;;11.27;72.42;99087.41;4991322;28;20363;-45
2020/12/05 03:27:52;;;;;;;2.75;1.15;;;;;;;11.39;71.10;99099.63;4991586;28;20482;-45
2020/12/05 03:30:17;;;;;;;2.45;0.85;;;;;;;11.26;68.38;99096.50;4995178;28;20030;-45
2020/12/05 03:32:44;;;;;;;4.95;0.75;;;;;;;11.11;68.48;99097.44;4995242;28;20045;-47
2020/12/05 03:35:09;;;;;;;0.60;0.35;;;;;;;11.01;67.75;99112.84;4995129;28;20463;-45
2020/12/05 03:37:36;;;;;;;1.05;0.65;;;;;;;10.76;67.28;99125.38;4995210;28;20092;-47
2020/12/05 03:40:03;;;;;;;1.85;0.30;;;;;;;10.79;67.33;99120.25;4994914;28;20479;-45
2020/12/05 03:42:29;;;;;;;6.70;0.93;;;;;;;10.57;68.01;99139.44;4994902;28;20045;-44
2020/12/05 03:44:55;;;;;;;0.63;0.47;;;;;;;10.59;66.85;99145.31;4994641;28;20513;-46
2020/12/05 03:47:20;;;;;;;0.20;0.20;;;;;;;10.73;67.14;99117.91;4994835;28;20046;-44
2020/12/05 03:49:46;;;;;;;1.17;0.60;;;;;;;10.51;67.16;99151.25;4994624;28;20026;-45
2020/12/05 03:52:11;;;;;;;1.75;0.68;;;;;;;10.46;67.79;99159.34;4997849;28;20058;-46
2020/12/05 03:54:37;;;;;;;0.20;0.10;;;;;;;10.36;68.74;99154.03;4998488;28;20038;-46
2020/12/05 03:57:02;;;;;;;0.10;0.10;;;;;;;10.44;68.64;99107.13;4998651;28;20557;-46
2020/12/05 03:59:31;;;;;;;0.90;0.40;;;;;;;10.72;68.05;99097.53;4997325;28;20078;-47
2020/12/05 04:01:56;;;;;;;0.47;0.30;;;;;;;10.80;68.07;99131.78;4998093;28;20113;-45
2020/12/05 04:04:22;;;;;;;0.60;0.15;;;;;;;10.67;68.10;99145.81;5000070;28;20450;-45
2020/12/05 04:06:48;;;;;;;4.30;0.40;;;;;;;10.72;68.84;99135.06;4994117;28;20030;-45
2020/12/05 04:09:13;;;;;;;1.33;0.15;;;;;;;10.74;69.37;99106.88;4994552;28;20053;-44
2020/12/05 04:11:40;;;;;;;0.30;0.30;;;;;;;10.65;69.29;99089.81;4991382;28;20049;-44
2020/12/05 04:14:07;;;;;;;0.30;0.20;;;;;;;10.58;70.00;99100.03;4998292;28;20042;-44
2020/12/05 04:16:33;;;;;;;0.55;0.45;;;;;;;10.56;70.10;99096.84;4997227;28;20042;-44
2020/12/05 04:18:59;;;;;;;1.02;0.55;;;;;;;10.66;69.83;99077.19;4998162;28;20056;-42
2020/12/05 04:21:25;;;;;;;9.55;2.13;;;;;;;10.61;70.63;99083.41;4999731;28;20382;-44
2020/12/05 04:23:50;;;;;;;4.65;1.20;;;;;;;10.59;70.66;99075.66;4998045;28;20388;-44
2020/12/05 04:26:16;;;;;;;3.67;1.58;;;;;;;10.49;71.14;99075.72;4999715;28;20030;-44
2020/12/05 04:28:41;;;;;;;2.88;2.00;;;;;;;10.35;71.31;99104.22;4997955;28;20045;-42
2020/12/05 04:31:07;;;;;;;0.98;0.73;;;;;;;10.34;71.06;99103.44;4998694;28;20027;-46
2020/12/05 04:33:32;;;;;;;8.52;1.08;;;;;;;10.48;70.06;99076.78;4998279;28;20390;-44
2020/12/05 04:35:58;;;;;;;2.05;1.10;;;;;;;10.31;70.45;99041.50;4998048;28;20045;-48
2020/12/05 04:38:23;;;;;;;2.00;1.17;;;;;;;10.52;69.54;99040.31;4999396;28;20057;-46
2020/12/05 04:40:48;;;;;;;3.25;2.05;;;;;;;10.53;69.11;99063.34;4997136;28;20080;-48
2020/12/05 04:43:15;;;;;;;2.90;1.05;;;;;;;10.64;69.17;99055.22;4995138;28;20046;-47
2020/12/05 04:45:42;;;;;;;2.97;1.23;;;;;;;10.62;69.56;99022.56;4993131;28;20026;-44
2020/12/05 04:48:09;;;;;;;0.52;0.25;;;;;;;10.71;69.42;99051.16;4996934;28;20125;-45
2020/12/05 04:50:35;;;;;;;3.20;0.57;;;;;;;10.49;69.42;99082.97;4993892;28;20471;-44
2020/12/05 04:53:17;;;;;;;0.95;0.68;;;;;;;10.48;69.63;99076.78;4993516;28;20388;-47
2020/12/05 04:55:43;;;;;;;0.85;0.35;;;;;;;10.43;69.39;99070.66;4989778;28;20035;-42
2020/12/05 04:58:16;;;;;;;4.13;0.90;;;;;;;10.58;68.96;99087.44;4993559;28;20035;-45
2020/12/05 05:00:43;;;;;;;0.60;0.40;;;;;;;10.59;68.87;99097.09;4991190;28;20037;-43
2020/12/05 05:03:10;;;;;;;4.35;0.93;;;;;;;10.59;69.92;99097.09;4998276;28;20434;-47
2020/12/05 05:05:36;;;;;;;0.35;0.20;;;;;;;10.56;69.85;99100.31;4997656;28;20049;-42
2020/12/05 05:08:01;;;;;;;2.67;1.55;;;;;;;10.53;70.31;99089.34;4997047;28;20054;-45
2020/12/05 05:10:30;;;;;;;1.88;0.75;;;;;;;10.67;69.87;99093.00;4995531;28;20093;-45
2020/12/05 05:13:13;;;;;;;0.57;0.38;;;;;;;10.68;70.30;99091.94;4993067;28;20052;-46
2020/12/05 05:15:39;;;;;;;1.27;0.73;;;;;;;10.65;71.14;99108.56;5004214;28;20042;-45
2020/12/05 05:18:05;;;;;;;4.05;0.93;;;;;;;10.54;71.36;99125.81;5002540;28;20041;-48
2020/12/05 05:20:37;;;;;;;0.32;0.20;;;;;;;10.57;71.37;99133.28;4998015;28;20459;-49
2020/12/05 05:23:18;;;;;;;0.93;0.40;;;;;;;10.69;70.82;99138.28;4997246;28;20038;-48
2020/12/05 05:25:56;;;;;;;1.05;0.40;;;;;;;10.84;70.05;99143.56;4991366;28;20035;-47
2020/12/05 05:28:37;;;;;;;0.60;0.30;;;;;;;10.82;70.21;99142.22;4998487;28;20063;-46
2020/12/05 05:33:45;;;;;;;0.90;0.30;;;;;;;10.86;69.65;99152.09;4990701;28;20073;-47
2020/12/05 05:36:25;;;;;;;12.70;1.00;;;;;;;10.66;71.28;99162.97;4998102;28;20053;-48
2020/12/05 05:39:05;;;;;;;0.17;0.13;;;;;;;10.56;71.43;99174.56;4991896;28;20280;-47
2020/12/05 05:41:32;;;;;;;2.17;0.60;;;;;;;10.49;71.92;99179.44;5005607;28;20081;-46
2020/12/05 05:44:02;;;;;;;5.85;0.47;;;;;;;10.63;71.46;99187.66;4992656;28;20078;-44
2020/12/05 05:46:31;;;;;;;3.08;1.05;;;;;;;10.70;71.89;99206.91;5002276;28;20038;-46
2020/12/05 05:48:58;;;;;;;1.15;1.05;;;;;;;10.71;72.32;99209.31;4996752;28;20459;-47
2020/12/05 05:51:49;;;;;;;1.52;0.93;;;;;;;10.70;72.19;99185.47;4997501;28;20109;-45
2020/12/05 05:54:16;;;;;;;0.47;0.47;;;;;;;10.58;72.28;99185.81;4995956;28;20057;-47
2020/12/05 05:57:11;;;;;;;3.53;1.20;;;;;;;10.66;71.95;99182.56;4996268;28;20090;-45
2020/12/05 05:59:45;;;;;;;2.00;0.70;;;;;;;10.65;71.65;99205.06;5006521;28;20137;-46
2020/12/05 06:02:15;;;;;;;0.65;0.43;;;;;;;10.71;71.88;99208.50;4992367;28;20044;-44
2020/12/05 06:04:45;;;;;;;4.30;1.13;;;;;;;10.64;72.44;99200.78;4989808;28;20088;-46
2020/12/05 06:07:18;;;;;;;2.35;1.60;;;;;;;10.64;71.95;99208.00;4997165;28;20536;-45
2020/12/05 06:09:46;;;;;;;2.45;1.40;;;;;;;10.72;72.01;99215.47;4990092;28;20046;-48
2020/12/05 06:12:18;;;;;;;1.38;0.70;;;;;;;10.68;72.10;99211.75;4992622;28;20065;-44
2020/12/05 06:14:44;;;;;;;5.30;0.50;;;;;;;10.76;71.24;99213.84;4990456;28;20113;-44
2020/12/05 06:17:10;;;;;;;3.53;0.95;;;;;;;10.77;70.97;99212.78;4996593;28;20130;-48
2020/12/05 06:19:38;;;;;;;1.48;0.55;;;;;;;10.86;70.01;99221.81;4995858;28;20049;-45
2020/12/05 06:22:04;;;;;;;1.30;0.50;;;;;;;10.90;69.69;99232.78;4996091;28;20084;-46
2020/12/05 06:24:45;;;;;;;0.75;0.50;;;;;;;10.73;69.99;99228.63;4996669;28;20033;-44
2020/12/05 06:27:12;;;;;;;0.87;0.30;;;;;;;10.69;70.48;99227.53;4997002;28;20046;-47
2020/12/05 06:29:38;;;;;;;0.15;0.10;;;;;;;10.59;70.80;99233.78;4995875;28;20263;-45
2020/12/05 06:32:04;;;;;;;1.42;0.73;;;;;;;10.58;71.65;99236.72;4995624;28;20038;-45
2020/12/05 06:34:41;;;;;;;4.45;2.42;;;;;;;10.56;71.50;99233.53;4995555;28;20034;-45
2020/12/05 06:37:30;;;;;;;2.33;0.47;;;;;;;10.56;71.24;99241.56;4996180;28;20034;-47
2020/12/05 06:40:05;;;;;;;0.75;0.38;;;;;;;10.69;70.75;99243.63;4991272;28;20042;-45
2020/12/05 06:42:47;;;;;;;1.52;0.40;;;;;;;10.56;71.42;99246.94;4990062;28;20062;-46
2020/12/05 06:45:25;;;;;;;1.58;0.95;;;;;;;10.49;71.22;99244.53;4995012;28;20461;-44
2020/12/05 06:47:50;;;;;;;5.80;3.28;;;;;;;10.43;71.88;99251.00;4990616;28;20037;-46
2020/12/05 06:50:32;;;;;;;3.50;1.52;;;;;;;10.37;71.64;99254.78;4997015;28;20395;-47
2020/12/05 06:52:57;;;;;;;2.10;1.23;;;;;;;10.35;72.66;99260.41;4986576;28;20039;-45
2020/12/05 06:55:33;;;;;;;5.07;2.67;;;;;;;10.46;71.97;99265.72;4997175;28;20048;-44
2020/12/05 06:58:06;;;;;;;2.20;1.40;;;;;;;10.54;71.10;99259.81;4995453;28;20034;-47
2020/12/05 07:00:39;;;;;;;0.98;0.73;;;;;;;10.43;70.75;99266.25;4990440;28;20056;-46
2020/12/05 07:03:10;;;;;;;2.90;1.67;;;;;;;10.52;70.80;99270.00;4993914;28;20115;-46
2020/12/05 07:05:43;;;;;;;1.53;1.10;;;;;;;10.50;71.38;99264.91;4982036;28;20103;-46
2020/12/05 07:08:27;;;;;;;2.92;0.70;;;;;;;10.46;71.33;99271.88;4995377;28;20304;-48
2020/12/05 07:11:02;;;;;;;2.67;0.70;;;;;;;10.49;70.48;99282.06;4992922;28;20026;-47
2020/12/05 07:13:44;;;;;;;1.98;0.85;;;;;;;10.39;71.01;99285.56;4993885;28;20038;-47
2020/12/05 07:16:15;;;;;;;2.08;1.45;;;;;;;10.40;71.48;99289.06;5010219;28;20041;-46
2020/12/05 07:18:44;;;;;;;8.20;3.53;;;;;;;10.38;71.85;99288.53;4993311;28;20080;-46
2020/12/05 07:21:10;;;;;;;1.38;0.80;;;;;;;10.42;72.03;99291.47;5000295;28;20427;-47
2020/12/05 07:23:36;;;;;;;2.88;2.28;;;;;;;10.47;70.83;99280.75;4999724;28;20108;-48
2020/12/05 07:26:02;;;;;;;2.55;1.77;;;;;;;10.49;70.43;99290.09;4999313;28;20030;-46
2020/12/05 07:28:28;;;;;;;2.60;1.50;;;;;;;10.54;70.60;99283.94;5000654;28;20065;-46
2020/12/05 07:30:54;;;;;;;1.73;1.23;;;;;;;10.39;71.34;99288.25;4996787;28;20034;-47
2020/12/05 07:33:20;;;;;;;4.60;2.53;;;;;;;10.44;70.89;99287.44;5000191;28;20042;-45
2020/12/05 07:35:58;;;;;;;0.88;0.77;;;;;;;10.41;71.42;99285.28;4998570;28;20483;-46
2020/12/05 07:38:27;;;;;;;4.47;3.20;;;;;;;10.51;71.08;99285.25;5000984;28;20049;-49
2020/12/05 07:40:52;;;;;;;4.93;3.53;;;;;;;10.42;71.08;99286.91;5003206;28;20113;-44
2020/12/05 07:43:19;;;;;;;4.15;1.52;;;;;;;10.55;70.72;99294.38;5000634;28;20143;-45
2020/12/05 07:45:49;;;;;;;5.10;2.85;;;;;;;10.57;71.31;99283.34;4998813;28;20026;-47
2020/12/05 07:48:18;;;;;;;4.97;2.92;;;;;;;10.52;71.61;99288.75;4994846;28;20034;-46
2020/12/05 07:50:45;;;;;;;14.57;10.20;;;;;;;10.51;71.75;99295.97;4995046;28;20030;-44
2020/12/05 07:53:25;;;;;;;8.43;6.80;;;;;;;10.49;72.26;99295.47;4994698;28;20468;-47
2020/12/05 07:55:50;;;;;;;8.10;4.57;;;;;;;10.40;72.09;99305.16;4993775;28;20045;-45
2020/12/05 07:58:16;;;;;;;5.70;3.28;;;;;;;10.38;72.19;99296.59;5000318;28;20034;-46
2020/12/05 08:00:42;;;;;;;5.07;2.42;;;;;;;10.60;71.46;99299.69;5006790;28;20029;-45
2020/12/05 08:03:39;;;;;;;1.63;0.65;;;;;;;10.58;70.98;99291.13;4997581;28;20606;-44
2020/12/05 08:06:40;;;;;;;4.22;1.73;;;;;;;10.64;71.37;99291.94;4996244;28;20035;-45
2020/12/05 08:09:06;;;;;;;5.40;2.60;;;;;;;10.48;71.92;99301.88;4985392;28;20090;-47
2020/12/05 08:11:44;;;;;;;10.77;5.00;;;;;;;10.42;72.32;99308.34;4999748;28;20403;-46
2020/12/05 08:14:11;;;;;;;7.40;5.97;;;;;;;10.46;72.60;99319.31;4993893;28;20045;-48
2020/12/05 08:16:39;;;;;;;10.68;6.20;;;;;;;10.49;72.66;99322.25;4993826;28;20065;-45
2020/12/05 08:19:04;;;;;;;8.15;4.50;;;;;;;10.54;72.48;99332.97;4994841;28;20042;-48
2020/12/05 08:21:30;;;;;;;6.68;5.97;;;;;;;10.46;72.50;99330.84;4993992;28;20058;-45
2020/12/05 08:24:06;;;;;;;12.40;5.47;;;;;;;10.40;72.51;99332.72;4995271;28;20050;-49
2020/12/05 08:26:31;;;;;;;6.35;4.22;;;;;;;10.50;72.50;99329.22;4993349;28;20451;-48
2020/12/05 08:28:58;;;;;;;4.30;2.97;;;;;;;10.65;71.89;99346.31;4979181;28;20054;-51
2020/12/05 08:31:24;;;;;;;5.45;2.53;;;;;;;10.65;72.15;99349.00;4988102;28;20048;-49
2020/12/05 08:33:50;;;;;;;6.10;4.07;;;;;;;10.49;72.26;99356.31;4986920;28;20137;-48
2020/12/05 08:36:21;;;;;;;15.40;10.00;;;;;;;10.35;73.43;99366.78;4989193;28;20042;-51
2020/12/05 08:38:48;;;;;;;8.65;6.57;;;;;;;10.52;72.57;99367.28;4989826;28;20049;-50
2020/12/05 08:41:14;;;;;;;5.40;3.88;;;;;;;10.67;71.48;99360.25;4991219;28;20034;-49
2020/12/05 08:43:39;;;;;;;4.85;2.55;;;;;;;10.75;70.90;99359.69;4988971;28;20048;-48
2020/12/05 08:46:23;;;;;;;3.85;2.17;;;;;;;10.79;70.56;99374.16;4991626;28;20613;-46
2020/12/05 08:48:50;;;;;;;2.35;1.65;;;;;;;10.83;70.82;99388.59;4983745;28;20034;-47
2020/12/05 08:51:25;;;;;;;15.38;9.18;;;;;;;10.48;72.72;99422.47;4991556;28;20129;-52
2020/12/05 08:54:02;;;;;;;3.10;2.72;;;;;;;10.64;68.66;99417.91;4987671;28;20095;-49
2020/12/05 08:56:28;;;;;;;6.45;2.67;;;;;;;10.87;68.45;99419.19;4992887;28;20037;-48
2020/12/05 08:58:53;;;;;;;18.75;14.68;;;;;;;10.83;67.40;99423.47;4986730;28;20403;-50
2020/12/05 09:01:19;;;;;;;15.68;7.43;;;;;;;10.71;67.37;99431.00;4997928;28;20042;-53
2020/12/05 09:03:44;;;;;;;12.43;7.10;;;;;;;10.76;68.32;99437.19;4997107;28;20109;-50
2020/12/05 09:06:09;;;;;;;6.47;4.32;;;;;;;10.84;67.44;99446.53;4996602;28;20109;-50
2020/12/05 09:08:35;;;;;;;14.70;12.25;;;;;;;10.76;66.77;99465.84;4992309;28;20289;-49
2020/12/05 09:11:01;;;;;;;7.93;6.80;;;;;;;10.51;60.63;99466.69;4996722;28;20034;-46
2020/12/05 09:13:27;;;;;;;11.65;3.22;;;;;;;10.36;60.19;99456.78;4995203;28;20053;-50
2020/12/05 09:16:03;;;;;;;10.07;6.93;;;;;;;10.54;61.32;99456.25;4989690;28;20121;-46
2020/12/05 09:18:50;;;;;;;1.70;1.42;;;;;;;10.67;61.86;99459.44;4990942;28;20141;-50
2020/12/05 09:21:20;;;;;;;4.30;2.33;;;;;;;10.59;62.53;99453.56;4994665;28;20069;-55
2020/12/05 09:24:03;;;;;;;1.98;1.30;;;;;;;10.50;62.70;99452.50;4997432;28;20129;-51
2020/12/05 09:26:29;;;;;;;4.30;2.28;;;;;;;10.18;65.98;99452.75;4994142;28;21279;-53
2020/12/05 09:28:55;;;;;;;2.63;1.67;;;;;;;10.38;65.02;99460.03;4996234;28;20048;-47
2020/12/05 09:31:21;;;;;;;2.33;1.42;;;;;;;10.46;64.87;99453.31;4998054;28;20044;-48
2020/12/05 09:33:46;;;;;;;2.92;1.90;;;;;;;10.59;65.26;99461.59;5001459;28;20050;-52
2020/12/05 09:36:13;;;;;;;3.65;1.83;;;;;;;10.62;65.48;99465.59;5002598;28;20137;-47
2020/12/05 09:38:38;;;;;;;1.67;1.30;;;;;;;10.62;65.52;99478.22;5001893;28;20046;-45
2020/12/05 09:41:04;;;;;;;4.75;3.05;;;;;;;10.70;65.40;99478.47;5001027;28;20463;-48
2020/12/05 09:43:30;;;;;;;6.90;3.50;;;;;;;10.82;65.34;99493.44;4997974;28;20506;-46
2020/12/05 09:45:55;;;;;;;8.10;4.40;;;;;;;10.76;65.94;99490.81;4996382;28;20715;-46
2020/12/05 09:48:21;;;;;;;5.28;4.18;;;;;;;10.76;65.89;99501.53;4998260;28;20038;-48
2020/12/05 09:50:46;;;;;;;7.22;4.80;;;;;;;10.71;65.92;99498.03;4996182;28;20041;-48
2020/12/05 09:53:12;;;;;;;5.78;4.53;;;;;;;10.66;66.55;99501.53;4997727;28;20038;-48
2020/12/05 09:55:38;;;;;;;6.22;4.82;;;;;;;10.85;66.21;99496.41;4996442;28;20053;-51
2020/12/05 09:58:03;;;;;;;6.78;5.22;;;;;;;10.82;66.94;99504.19;4995880;28;20390;-49
2020/12/05 10:00:29;;;;;;;11.43;5.25;;;;;;;10.81;67.10;99516.00;4993760;28;20347;-51
2020/12/05 10:02:55;;;;;;;4.90;2.97;;;;;;;10.89;67.02;99510.88;4991968;28;20065;-46
2020/12/05 10:05:20;;;;;;;6.28;4.28;;;;;;;10.91;66.42;99516.78;4992361;28;20085;-51
2020/12/05 10:07:46;;;;;;;3.75;2.08;;;;;;;10.90;66.28;99509.00;4992084;28;20121;-49
2020/12/05 10:10:12;;;;;;;3.58;2.45;;;;;;;10.91;66.04;99518.66;4992020;28;20034;-49
2020/12/05 10:12:38;;;;;;;7.85;2.85;;;;;;;10.90;66.88;99522.41;4998198;28;20042;-49
2020/12/05 10:15:15;;;;;;;8.07;5.85;;;;;;;10.76;67.95;99530.19;4998946;28;20057;-45
2020/12/05 10:17:42;;;;;;;13.48;11.40;;;;;;;10.77;67.72;99542.53;4989826;28;20043;-46
2020/12/05 10:20:08;;;;;;;17.10;6.22;;;;;;;10.90;66.78;99531.25;4996807;28;20038;-46
2020/12/05 10:22:33;;;;;;;5.82;4.70;;;;;;;11.02;66.01;99536.31;4996610;28;20045;-45
2020/12/05 10:24:59;;;;;;;7.45;5.85;;;;;;;11.01;65.41;99539.28;4995886;28;20486;-45
2020/12/05 10:27:25;;;;;;;9.32;5.60;;;;;;;10.96;66.08;99538.22;4997279;28;20501;-52
2020/12/05 10:29:50;;;;;;;6.93;5.25;;;;;;;11.15;65.80;99548.38;4996949;28;20041;-47
2020/12/05 10:32:17;;;;;;;12.05;6.72;;;;;;;10.96;65.66;99534.75;4994952;28;20112;-51
2020/12/05 10:34:43;;;;;;;4.97;3.50;;;;;;;10.98;65.29;99541.44;4992875;28;20439;-45
2020/12/05 10:37:08;;;;;;;6.47;4.35;;;;;;;11.10;64.45;99543.84;4995788;28;20046;-45
2020/12/05 10:39:33;;;;;;;8.30;5.75;;;;;;;11.24;64.79;99544.06;4992190;28;20030;-46
2020/12/05 10:41:59;;;;;;;18.30;13.57;;;;;;;11.25;63.74;99534.94;4991156;28;20030;-45
2020/12/05 10:44:25;;;;;;;8.82;6.07;;;;;;;11.28;60.66;99537.06;4990721;28;20111;-47
2020/12/05 10:46:50;;;;;;;27.25;14.32;;;;;;;11.25;61.75;99534.94;4992950;28;20044;-48
2020/12/05 10:49:18;;;;;;;12.48;10.15;;;;;;;11.32;61.49;99530.06;4997103;28;20073;-47
2020/12/05 10:51:44;;;;;;;9.70;6.82;;;;;;;11.20;60.74;99539.50;4987937;28;20046;-45
2020/12/05 10:54:10;;;;;;;5.72;3.15;;;;;;;11.26;61.42;99544.59;4991019;28;20040;-47
2020/12/05 10:56:38;;;;;;;5.40;3.78;;;;;;;11.19;61.45;99544.06;4992744;28;20042;-47
2020/12/05 10:59:04;;;;;;;5.80;2.83;;;;;;;11.23;61.21;99541.66;5000918;28;20038;-48
2020/12/05 11:01:29;;;;;;;10.55;4.00;;;;;;;11.31;61.12;99544.59;4998724;28;20057;-45
2020/12/05 11:03:55;;;;;;;2.95;1.88;;;;;;;11.04;60.00;99538.75;5002095;28;20447;-49
2020/12/05 11:06:21;;;;;;;2.72;1.27;;;;;;;11.09;61.49;99547.56;4982375;28;20402;-49
2020/12/05 11:08:47;;;;;;;3.13;1.58;;;;;;;11.23;61.85;99544.34;4994261;28;20046;-51
2020/12/05 11:11:12;;;;;;;6.82;1.92;;;;;;;11.22;61.56;99548.09;4990790;28;20828;-49
2020/12/05 11:13:38;;;;;;;15.50;7.63;;;;;;;11.33;61.62;99539.75;4988767;28;20037;-47
2020/12/05 11:16:03;;;;;;;6.50;4.35;;;;;;;11.51;61.55;99549.06;4987655;28;20034;-51
2020/12/05 11:18:29;;;;;;;15.65;6.97;;;;;;;11.58;61.63;99543.41;4990143;28;20037;-47
2020/12/05 11:20:54;;;;;;;6.80;4.90;;;;;;;11.65;62.83;99549.28;4987922;28;20038;-46
2020/12/05 11:23:20;;;;;;;8.75;5.35;;;;;;;11.67;62.34;99539.06;4990367;28;20042;-52
2020/12/05 11:25:45;;;;;;;8.52;7.38;;;;;;;11.69;61.68;99542.31;4988308;28;20042;-47
2020/12/05 11:28:10;;;;;;;6.57;5.18;;;;;;;11.63;61.13;99538.03;4989837;28;20038;-45
2020/12/05 11:30:36;;;;;;;5.60;2.47;;;;;;;11.48;59.27;99548.81;4988873;28;20482;-53
2020/12/05 11:33:01;;;;;;;3.58;2.53;;;;;;;11.29;59.92;99541.38;4984631;28;20088;-49
2020/12/05 11:35:27;;;;;;;6.60;4.30;;;;;;;11.43;60.94;99525.50;4973144;28;20038;-49
2020/12/05 11:37:52;;;;;;;5.13;3.38;;;;;;;11.54;58.91;99526.25;4984889;28;20045;-45
2020/12/05 11:40:18;;;;;;;2.75;1.73;;;;;;;11.41;59.32;99529.50;4987624;28;20043;-46